NCAR-RAP Real-Time Weather Data

Output produced by METARs form (23 June 2021  09:29 UTC)
found at http://weather.rap.ucar.edu/surface/
 
CYVC 230900Z 30010KT 15SM -SHRA BKN130 15/14 A2942 RMK AC7 CVCTV CLD EMBD SLP966 DENSITY ALT 2100FT
CYVC 230831Z 28013G19KT 15SM -SHRA BKN130 15/13 A2942 RMK AC7 CVCTV CLD EMBD SLP964 DENSITY ALT 2200FT
CYVC 230800Z 27009KT 15SM OVC130 15/14 A2941 RMK AC8 SLP961 DENSITY ALT 2200FT
CYVC 230700Z 27003KT 15SM SCT092 BKN150 BKN200 14/14 A2938 RMK AC3AC2CI2 SLP954 DENSITY ALT 2100FT
CYVC 230631Z 00000KT 15SM SCT085 BKN170 15/14 A2938 RMK AC4AC3 SLP953 DENSITY ALT 2200FT
CYVC 230613Z 04006KT 15SM -TSRA OVC072CB 15/14 A2939 RMK CB8 CIG RAG PRESFR SLP955 DENSITY ALT 2200FT
CYVC 230600Z 36011G17KT 280V020 5SM TSRA OVC060CB 16/14 A2941 RMK CB8 CIG RAG SLP963 DENSITY ALT 2300FT
CYVC 230553Z 29013KT 5SM TSRA OVC050CB 17/15 A2943 RMK CB8 CIG RAG PRESRR SLP971 DENSITY ALT 2300FT
CYVC 230550Z 30012KT 280V340 15SM -TSRA OVC050CB 17/15 A2943 RMK CB8 CIG RAG PRESRR SLP970 DENSITY ALT 2300FT
CYVC 230536Z 32012G24KT 280V340 15SM TS SCT100CB BKN150 17/15 A2940 RMK CB3AC4 OCNL LTGIC W PRESRR SLP960 DENSITY ALT 2400FT
CYVC 230500Z 25004KT 15SM BKN150 17/15 A2937 RMK AC7 SLP950 DENSITY ALT 2400FT
CYVC 230400Z 24003KT 15SM BKN150 17/15 A2937 RMK AC6 SLP950 DENSITY ALT 2400FT
CYVC 230300Z 24003KT 15SM SCT090 BKN160 17/16 A2936 RMK AC4AC3 SLP947 DENSITY ALT 2500FT
CYVC 230200Z 24003KT 210V300 15SM BKN090 BKN130 18/15 A2936 RMK AC5AC2 SLP947 DENSITY ALT 2500FT
CYVC 230100Z VRB02KT 15SM OVC100CB 17/15 A2938 RMK CB8 SLP955 DENSITY ALT 2500FT
CYVC 230044Z 34004KT 15SM OVC100CB 17/14 A2939 RMK CB8 PRESFR SLP958 DENSITY ALT 2400FT
CYVC 230000Z CCA 29029G44KT 6SM -TSRA OVC090CB 19/14 A2940 RMK CB8 CB SW-N PRESRR SLP963 DENSITY ALT 2600FT
CYVC 222321Z 20005G22KT 180V270 15SM -TSRA BKN090CB BKN130 23/12 A2935 RMK CB5AC2 CB NW AND SE PRESFR SLP944 DENSITY ALT 3200FT
CYVC 222316Z 21008G22KT 190V270 15SM BKN090CB OVC120 23/11 A2935 RMK CB5AC3 PRESFR SLP946 DENSITY ALT 3200FT
CYVC 222300Z 22009G17KT 15SM -TSRA BKN090CB OVC250 22/14 A2937 RMK CB7CI1 CB SE SLP953 DENSITY ALT 3000FT
CYVC 222244Z 24017G30KT 15SM -TSRA BKN090CB OVC250 22/14 A2937 RMK CB7CI1 CB S SLP952 DENSITY ALT 3000FT
CYVC 222240Z 24019G30KT 10SM TSRA BKN090CB OVC250 25/11 A2937 RMK CB7CI1 CB S SLP951 DENSITY ALT 3300FT
CYVC 222229Z 24007KT 220V280 15SM TS BKN090CB BKN250 28/10 A2936 RMK CB6CI1 CB SW SLP945 DENSITY ALT 3700FT
CYVC 222200Z 23006KT 160V270 15SM BKN090 BKN250 27/09 A2936 RMK CU5CI2 SLP947 DENSITY ALT 3600FT
 
CXOX 230900Z AUTO 31008KT 15/13 RMK AO1 3005 SLP959 T01470130 50013
CXOX 230800Z AUTO 29005KT 15/14 RMK AO1 1012 SLP954 T01480136 50013
CXOX 230700Z AUTO 29003KT 14/13 RMK AO1 3PAST HR 0004 SLP946 P0005 T01430131 50013
CXOX 230600Z AUTO 35010KT 16/13 RMK AO1 2PAST HR 3014 PK WND 34019/0534 SLP955 P0009 T01580133 50053
CXOX 230500Z AUTO 24002KT 16/14 RMK AO1 1003 SLP943 T01570142 50032
CXOX 230400Z AUTO 24002KT 16/14 RMK AO1 5001 SLP944 T01600144 50032
CXOX 230300Z AUTO 23003KT 17/15 RMK AO1 5011 SLP941 T01700150 50032
CXOX 230200Z AUTO 24002KT 17/15 RMK AO1 8006 SLP941 T01740151 50032
CXOX 230100Z AUTO 36002KT 17/14 RMK AO1 2PAST HR 0002 PK WND 29030/0000 SLP946 P0012 T01730135 50032
CXOX 230000Z AUTO 29010G30KT 18/12 RMK AO1 4PAST HR 3002 PK WND 31030/2359 SLP956 P0002 T01760119 50007
CXOX 222300Z AUTO 22007KT 22/13 RMK AO1 4PAST HR 5016 SLP948 P0002 T02160129 50004
CXOX 222200Z AUTO 23004KT 27/06 RMK AO1 SLP942 T02740061 57027